sensor_id;sensor_type;location;lat;lon;timestamp;pressure;altitude;pressure_sealevel;temperature;humidity
14882;BME280;7533;51.278;12.588;2022-10-28T00:00:42;100853.16;;;24.22;68.97
14882;BME280;7533;51.278;12.588;2022-10-28T00:05:45;100856.00;;;24.20;69.19
14882;BME280;7533;51.278;12.588;2022-10-28T00:10:48;100848.84;;;24.19;69.15
14882;BME280;7533;51.278;12.588;2022-10-28T00:15:52;100849.94;;;24.17;69.20
14882;BME280;7533;51.278;12.588;2022-10-28T00:20:58;100852.63;;;24.17;69.10
14882;BME280;7533;51.278;12.588;2022-10-28T00:26:10;100838.47;;;24.13;69.47
14882;BME280;7533;51.278;12.588;2022-10-28T00:31:17;100835.00;;;24.11;69.16
14882;BME280;7533;51.278;12.588;2022-10-28T00:36:21;100830.69;;;24.09;69.36
14882;BME280;7533;51.278;12.588;2022-10-28T00:41:26;100839.88;;;24.06;69.36
14882;BME280;7533;51.278;12.588;2022-10-28T00:46:36;100838.59;;;23.99;69.67
14882;BME280;7533;51.278;12.588;2022-10-28T00:51:43;100827.03;;;23.97;69.87
14882;BME280;7533;51.278;12.588;2022-10-28T00:56:50;100823.56;;;23.95;69.88
14882;BME280;7533;51.278;12.588;2022-10-28T01:01:56;100823.13;;;23.88;70.00
14882;BME280;7533;51.278;12.588;2022-10-28T01:07:00;100799.97;;;23.84;70.29
14882;BME280;7533;51.278;12.588;2022-10-28T01:12:13;100795.00;;;23.78;70.43
14882;BME280;7533;51.278;12.588;2022-10-28T01:17:31;100805.19;;;23.74;70.69
14882;BME280;7533;51.278;12.588;2022-10-28T01:22:40;100805.41;;;23.71;70.65
14882;BME280;7533;51.278;12.588;2022-10-28T01:27:59;100800.22;;;23.68;70.79
14882;BME280;7533;51.278;12.588;2022-10-28T01:33:10;100805.09;;;23.63;71.18
14882;BME280;7533;51.278;12.588;2022-10-28T01:38:27;100815.31;;;23.58;71.53
14882;BME280;7533;51.278;12.588;2022-10-28T01:43:39;100795.97;;;23.52;71.60
14882;BME280;7533;51.278;12.588;2022-10-28T01:48:47;100802.44;;;23.49;71.87
14882;BME280;7533;51.278;12.588;2022-10-28T01:53:54;100800.91;;;23.45;72.00
14882;BME280;7533;51.278;12.588;2022-10-28T01:58:59;100797.66;;;23.40;72.13
14882;BME280;7533;51.278;12.588;2022-10-28T02:04:04;100808.81;;;23.35;72.33
14882;BME280;7533;51.278;12.588;2022-10-28T02:09:16;100805.44;;;23.32;72.40
14882;BME280;7533;51.278;12.588;2022-10-28T02:14:36;100801.34;;;23.26;72.72
14882;BME280;7533;51.278;12.588;2022-10-28T02:19:47;100804.34;;;23.21;72.83
14882;BME280;7533;51.278;12.588;2022-10-28T02:25:02;100804.56;;;23.18;73.00
14882;BME280;7533;51.278;12.588;2022-10-28T02:30:11;100796.91;;;23.12;73.18
14882;BME280;7533;51.278;12.588;2022-10-28T02:35:21;100792.66;;;23.08;73.37
14882;BME280;7533;51.278;12.588;2022-10-28T02:40:29;100783.78;;;23.06;73.46
14882;BME280;7533;51.278;12.588;2022-10-28T02:45:38;100770.72;;;23.00;73.76
14882;BME280;7533;51.278;12.588;2022-10-28T02:50:57;100768.34;;;22.95;73.79
14882;BME280;7533;51.278;12.588;2022-10-28T02:56:03;100766.69;;;22.93;74.08
14882;BME280;7533;51.278;12.588;2022-10-28T03:01:07;100767.00;;;22.88;74.14
14882;BME280;7533;51.278;12.588;2022-10-28T03:06:12;100767.09;;;22.87;74.24
14882;BME280;7533;51.278;12.588;2022-10-28T03:11:14;100767.41;;;22.82;74.48
14882;BME280;7533;51.278;12.588;2022-10-28T03:16:17;100764.06;;;22.79;74.60
14882;BME280;7533;51.278;12.588;2022-10-28T03:21:21;100754.31;;;22.76;74.70
14882;BME280;7533;51.278;12.588;2022-10-28T03:26:24;100755.41;;;22.74;74.88
14882;BME280;7533;51.278;12.588;2022-10-28T03:31:26;100761.00;;;22.70;74.99
14882;BME280;7533;51.278;12.588;2022-10-28T03:36:30;100751.28;;;22.68;75.10
14882;BME280;7533;51.278;12.588;2022-10-28T03:41:33;100747.16;;;22.62;75.18
14882;BME280;7533;51.278;12.588;2022-10-28T03:46:36;100738.41;;;22.59;75.50
14882;BME280;7533;51.278;12.588;2022-10-28T03:51:40;100738.59;;;22.56;75.53
14882;BME280;7533;51.278;12.588;2022-10-28T03:56:42;100731.69;;;22.52;75.76
14882;BME280;7533;51.278;12.588;2022-10-28T04:01:45;100735.44;;;22.49;76.10
14882;BME280;7533;51.278;12.588;2022-10-28T04:06:49;100731.13;;;22.47;76.06
14882;BME280;7533;51.278;12.588;2022-10-28T04:11:52;100733.03;;;22.44;76.33
14882;BME280;7533;51.278;12.588;2022-10-28T04:16:55;100730.56;;;22.41;76.50
14882;BME280;7533;51.278;12.588;2022-10-28T04:21:59;100728.84;;;22.40;76.55
14882;BME280;7533;51.278;12.588;2022-10-28T04:27:01;100725.34;;;22.38;76.69
14882;BME280;7533;51.278;12.588;2022-10-28T04:32:04;100730.00;;;22.36;76.95
14882;BME280;7533;51.278;12.588;2022-10-28T04:37:08;100736.25;;;22.37;77.08
14882;BME280;7533;51.278;12.588;2022-10-28T04:42:11;100734.66;;;22.34;77.27
14882;BME280;7533;51.278;12.588;2022-10-28T04:47:15;100741.09;;;22.32;77.31
14882;BME280;7533;51.278;12.588;2022-10-28T04:52:19;100739.34;;;22.31;77.31
14882;BME280;7533;51.278;12.588;2022-10-28T04:57:22;100735.06;;;22.28;77.42
14882;BME280;7533;51.278;12.588;2022-10-28T05:02:24;100728.00;;;22.26;77.34
14882;BME280;7533;51.278;12.588;2022-10-28T05:07:29;100714.63;;;22.24;77.62
14882;BME280;7533;51.278;12.588;2022-10-28T05:12:31;100706.66;;;22.23;77.55
14882;BME280;7533;51.278;12.588;2022-10-28T05:17:34;100718.38;;;22.22;77.66
14882;BME280;7533;51.278;12.588;2022-10-28T05:22:44;100719.47;;;22.19;77.72
14882;BME280;7533;51.278;12.588;2022-10-28T05:27:47;100716.00;;;22.17;77.88
14882;BME280;7533;51.278;12.588;2022-10-28T05:32:50;100712.41;;;22.16;77.88
14882;BME280;7533;51.278;12.588;2022-10-28T05:37:57;100719.56;;;22.17;77.99
14882;BME280;7533;51.278;12.588;2022-10-28T05:43:00;100696.25;;;22.16;78.05
14882;BME280;7533;51.278;12.588;2022-10-28T05:48:04;100723.31;;;22.15;78.11
14882;BME280;7533;51.278;12.588;2022-10-28T05:53:08;100734.31;;;22.12;78.08
14882;BME280;7533;51.278;12.588;2022-10-28T05:58:10;100729.88;;;22.11;78.16
14882;BME280;7533;51.278;12.588;2022-10-28T06:03:13;100732.63;;;22.09;78.37
14882;BME280;7533;51.278;12.588;2022-10-28T06:08:17;100730.03;;;22.08;78.40
14882;BME280;7533;51.278;12.588;2022-10-28T06:13:20;100740.81;;;22.08;78.52
14882;BME280;7533;51.278;12.588;2022-10-28T06:18:23;100732.94;;;22.05;78.75
14882;BME280;7533;51.278;12.588;2022-10-28T06:23:27;100734.75;;;22.04;78.80
14882;BME280;7533;51.278;12.588;2022-10-28T06:28:30;100758.25;;;22.02;78.81
14882;BME280;7533;51.278;12.588;2022-10-28T06:33:33;100746.63;;;22.02;78.90
14882;BME280;7533;51.278;12.588;2022-10-28T06:38:37;100743.13;;;22.00;78.87
14882;BME280;7533;51.278;12.588;2022-10-28T06:43:40;100741.34;;;22.00;78.99
14882;BME280;7533;51.278;12.588;2022-10-28T06:48:43;100744.97;;;21.99;78.93
14882;BME280;7533;51.278;12.588;2022-10-28T06:53:48;100748.63;;;21.98;79.13
14882;BME280;7533;51.278;12.588;2022-10-28T06:58:53;100752.19;;;21.99;78.96
14882;BME280;7533;51.278;12.588;2022-10-28T07:03:56;100751.31;;;21.98;79.08
14882;BME280;7533;51.278;12.588;2022-10-28T07:09:00;100757.00;;;21.93;73.26
14882;BME280;7533;51.278;12.588;2022-10-28T07:14:02;100760.59;;;21.65;70.75
14882;BME280;7533;51.278;12.588;2022-10-28T07:19:05;100763.47;;;21.48;70.19
14882;BME280;7533;51.278;12.588;2022-10-28T07:24:09;100766.53;;;21.42;69.93
14882;BME280;7533;51.278;12.588;2022-10-28T07:29:12;100775.38;;;21.30;70.64
14882;BME280;7533;51.278;12.588;2022-10-28T07:34:15;100770.44;;;21.22;70.79
14882;BME280;7533;51.278;12.588;2022-10-28T07:39:19;100767.91;;;21.19;70.57
14882;BME280;7533;51.278;12.588;2022-10-28T07:44:22;100787.13;;;21.13;71.25
14882;BME280;7533;51.278;12.588;2022-10-28T07:49:25;100779.50;;;21.35;71.67
14882;BME280;7533;51.278;12.588;2022-10-28T07:54:29;100774.91;;;21.52;71.89
14882;BME280;7533;51.278;12.588;2022-10-28T07:59:32;100771.66;;;21.61;72.48
14882;BME280;7533;51.278;12.588;2022-10-28T08:04:35;100771.19;;;21.69;72.64
14882;BME280;7533;51.278;12.588;2022-10-28T08:09:39;100781.56;;;21.75;72.77
14882;BME280;7533;51.278;12.588;2022-10-28T08:14:42;100762.53;;;21.78;73.07
14882;BME280;7533;51.278;12.588;2022-10-28T08:19:44;100786.28;;;21.85;73.24
14882;BME280;7533;51.278;12.588;2022-10-28T08:24:48;100770.88;;;21.87;73.01
14882;BME280;7533;51.278;12.588;2022-10-28T08:29:51;100756.44;;;21.88;73.83
14882;BME280;7533;51.278;12.588;2022-10-28T08:34:54;100762.72;;;21.89;74.66
14882;BME280;7533;51.278;12.588;2022-10-28T08:39:58;100746.44;;;21.90;75.04
14882;BME280;7533;51.278;12.588;2022-10-28T08:45:15;100739.91;;;21.95;74.64
14882;BME280;7533;51.278;12.588;2022-10-28T08:50:22;100736.00;;;21.99;74.65
14882;BME280;7533;51.278;12.588;2022-10-28T08:55:29;100718.00;;;21.99;74.77
14882;BME280;7533;51.278;12.588;2022-10-28T09:00:33;100716.00;;;22.03;74.58
14882;BME280;7533;51.278;12.588;2022-10-28T09:05:38;100705.91;;;22.06;74.71
14882;BME280;7533;51.278;12.588;2022-10-28T09:10:56;100696.84;;;22.07;74.74
14882;BME280;7533;51.278;12.588;2022-10-28T09:16:06;100696.66;;;22.10;74.98
14882;BME280;7533;51.278;12.588;2022-10-28T09:21:20;100696.34;;;22.15;74.89
14882;BME280;7533;51.278;12.588;2022-10-28T09:26:36;100670.81;;;22.21;74.38
14882;BME280;7533;51.278;12.588;2022-10-28T09:31:46;100679.69;;;22.23;74.54
14882;BME280;7533;51.278;12.588;2022-10-28T09:36:53;100667.94;;;22.24;74.66
14882;BME280;7533;51.278;12.588;2022-10-28T09:41:59;100666.75;;;22.28;74.83
14882;BME280;7533;51.278;12.588;2022-10-28T09:47:12;100658.56;;;22.29;74.96
14882;BME280;7533;51.278;12.588;2022-10-28T09:52:20;100644.88;;;22.32;75.13
14882;BME280;7533;51.278;12.588;2022-10-28T09:57:29;100644.56;;;22.37;75.08
14882;BME280;7533;51.278;12.588;2022-10-28T10:02:32;100627.22;;;22.41;75.01
14882;BME280;7533;51.278;12.588;2022-10-28T10:07:40;100647.63;;;22.45;74.83
14882;BME280;7533;51.278;12.588;2022-10-28T10:12:48;100645.78;;;22.46;74.76
14882;BME280;7533;51.278;12.588;2022-10-28T10:17:55;100642.00;;;22.48;74.95
14882;BME280;7533;51.278;12.588;2022-10-28T10:22:59;100632.06;;;22.49;75.02
14882;BME280;7533;51.278;12.588;2022-10-28T10:28:13;100647.19;;;22.51;75.01
14882;BME280;7533;51.278;12.588;2022-10-28T10:33:19;100649.66;;;22.54;75.17
14882;BME280;7533;51.278;12.588;2022-10-28T10:38:24;100639.97;;;22.52;75.23
14882;BME280;7533;51.278;12.588;2022-10-28T10:43:32;100632.50;;;22.55;75.18
14882;BME280;7533;51.278;12.588;2022-10-28T10:48:36;100641.47;;;22.56;75.12
14882;BME280;7533;51.278;12.588;2022-10-28T10:53:39;100628.22;;;22.65;76.28
14882;BME280;7533;51.278;12.588;2022-10-28T10:58:48;100626.94;;;22.71;76.88
14882;BME280;7533;51.278;12.588;2022-10-28T11:03:54;100622.50;;;22.70;76.34
14882;BME280;7533;51.278;12.588;2022-10-28T11:09:02;100612.03;;;22.65;72.51
14882;BME280;7533;51.278;12.588;2022-10-28T11:14:19;100611.59;;;22.71;71.99
14882;BME280;7533;51.278;12.588;2022-10-28T11:19:28;100599.44;;;22.79;72.48
14882;BME280;7533;51.278;12.588;2022-10-28T11:24:42;100588.53;;;22.80;72.12
14882;BME280;7533;51.278;12.588;2022-10-28T11:29:51;100584.72;;;22.83;71.18
14882;BME280;7533;51.278;12.588;2022-10-28T11:35:22;100574.31;;;22.91;71.16
14882;BME280;7533;51.278;12.588;2022-10-28T11:40:38;100567.69;;;22.95;71.43
14882;BME280;7533;51.278;12.588;2022-10-28T11:45:51;100572.78;;;23.00;71.74
14882;BME280;7533;51.278;12.588;2022-10-28T11:51:05;100562.94;;;22.99;72.04
14882;BME280;7533;51.278;12.588;2022-10-28T11:56:20;100566.94;;;23.06;71.88
14882;BME280;7533;51.278;12.588;2022-10-28T12:01:40;100564.22;;;23.06;72.23
14882;BME280;7533;51.278;12.588;2022-10-28T12:06:56;100563.28;;;23.07;72.10
14882;BME280;7533;51.278;12.588;2022-10-28T12:12:14;100549.78;;;23.07;72.63
14882;BME280;7533;51.278;12.588;2022-10-28T12:17:24;100551.19;;;23.12;72.44
14882;BME280;7533;51.278;12.588;2022-10-28T12:22:32;100549.44;;;23.24;72.19
14882;BME280;7533;51.278;12.588;2022-10-28T12:27:41;100553.06;;;23.36;71.26
14882;BME280;7533;51.278;12.588;2022-10-28T12:32:49;100559.06;;;23.52;70.39
14882;BME280;7533;51.278;12.588;2022-10-28T12:37:59;100550.50;;;23.58;70.13
14882;BME280;7533;51.278;12.588;2022-10-28T12:43:10;100559.69;;;23.68;69.56
14882;BME280;7533;51.278;12.588;2022-10-28T12:48:21;100563.31;;;23.80;69.76
14882;BME280;7533;51.278;12.588;2022-10-28T12:53:32;100569.94;;;23.76;69.82
14882;BME280;7533;51.278;12.588;2022-10-28T12:58:41;100578.91;;;23.77;69.74
14882;BME280;7533;51.278;12.588;2022-10-28T13:03:49;100580.00;;;23.74;69.11
14882;BME280;7533;51.278;12.588;2022-10-28T13:09:24;100573.94;;;23.70;68.77
14882;BME280;7533;51.278;12.588;2022-10-28T13:14:52;100588.97;;;23.62;69.02
14882;BME280;7533;51.278;12.588;2022-10-28T13:20:15;100577.22;;;23.63;68.88
14882;BME280;7533;51.278;12.588;2022-10-28T13:25:36;100576.56;;;23.59;68.79
14882;BME280;7533;51.278;12.588;2022-10-28T13:30:54;100568.91;;;23.53;68.57
14882;BME280;7533;51.278;12.588;2022-10-28T13:36:09;100570.22;;;23.47;68.28
14882;BME280;7533;51.278;12.588;2022-10-28T13:41:34;100568.81;;;23.42;68.46
14882;BME280;7533;51.278;12.588;2022-10-28T13:52:20;100563.97;;;23.34;68.55
14882;BME280;7533;51.278;12.588;2022-10-28T13:57:26;100565.81;;;23.34;68.49
14882;BME280;7533;51.278;12.588;2022-10-28T14:02:35;100562.16;;;23.35;68.10
14882;BME280;7533;51.278;12.588;2022-10-28T14:07:50;100567.88;;;23.30;68.48
14882;BME280;7533;51.278;12.588;2022-10-28T14:12:56;100571.31;;;23.32;68.72
14882;BME280;7533;51.278;12.588;2022-10-28T14:18:02;100564.53;;;23.27;69.02
14882;BME280;7533;51.278;12.588;2022-10-28T14:24:00;100565.63;;;23.24;69.25
14882;BME280;7533;51.278;12.588;2022-10-28T14:29:22;100562.06;;;23.23;69.02
14882;BME280;7533;51.278;12.588;2022-10-28T14:34:40;100563.78;;;23.25;69.27
14882;BME280;7533;51.278;12.588;2022-10-28T14:39:58;100553.97;;;23.23;69.79
14882;BME280;7533;51.278;12.588;2022-10-28T14:45:19;100557.97;;;23.18;70.09
14882;BME280;7533;51.278;12.588;2022-10-28T14:50:31;100555.28;;;23.18;70.43
14882;BME280;7533;51.278;12.588;2022-10-28T14:55:37;100561.22;;;23.10;70.42
14882;BME280;7533;51.278;12.588;2022-10-28T15:00:45;100564.16;;;23.07;70.89
14882;BME280;7533;51.278;12.588;2022-10-28T15:05:50;100552.16;;;22.99;71.60
14882;BME280;7533;51.278;12.588;2022-10-28T15:10:54;100541.59;;;22.95;71.67
14882;BME280;7533;51.278;12.588;2022-10-28T15:15:57;100544.50;;;22.92;71.75
14882;BME280;7533;51.278;12.588;2022-10-28T15:21:10;100532.97;;;22.90;71.96
14882;BME280;7533;51.278;12.588;2022-10-28T15:26:15;100532.59;;;22.82;72.30
14882;BME280;7533;51.278;12.588;2022-10-28T15:31:18;100543.09;;;22.74;72.39
14882;BME280;7533;51.278;12.588;2022-10-28T15:36:22;100530.03;;;22.68;72.54
14882;BME280;7533;51.278;12.588;2022-10-28T15:41:44;100528.72;;;22.61;72.54
14882;BME280;7533;51.278;12.588;2022-10-28T15:46:50;100525.38;;;22.57;72.42
14882;BME280;7533;51.278;12.588;2022-10-28T15:52:19;100518.03;;;22.59;72.69
14882;BME280;7533;51.278;12.588;2022-10-28T15:57:24;100523.66;;;22.56;72.56
14882;BME280;7533;51.278;12.588;2022-10-28T16:02:49;100514.47;;;22.46;72.27
14882;BME280;7533;51.278;12.588;2022-10-28T16:07:54;100512.28;;;22.38;71.75
14882;BME280;7533;51.278;12.588;2022-10-28T16:12:59;100508.53;;;22.41;73.06
14882;BME280;7533;51.278;12.588;2022-10-28T16:18:02;100510.56;;;22.50;73.21
14882;BME280;7533;51.278;12.588;2022-10-28T16:23:09;100513.06;;;22.53;73.39
14882;BME280;7533;51.278;12.588;2022-10-28T16:28:19;100507.56;;;22.55;73.88
14882;BME280;7533;51.278;12.588;2022-10-28T16:33:27;100497.44;;;22.58;73.93
14882;BME280;7533;51.278;12.588;2022-10-28T16:38:30;100504.53;;;22.59;74.11
14882;BME280;7533;51.278;12.588;2022-10-28T16:43:35;100500.88;;;22.60;74.13
14882;BME280;7533;51.278;12.588;2022-10-28T16:48:39;100514.28;;;22.62;74.88
14882;BME280;7533;51.278;12.588;2022-10-28T16:53:42;100520.41;;;22.64;74.95
14882;BME280;7533;51.278;12.588;2022-10-28T16:58:49;100522.25;;;22.63;75.21
14882;BME280;7533;51.278;12.588;2022-10-28T17:03:51;100519.44;;;22.65;75.79
14882;BME280;7533;51.278;12.588;2022-10-28T17:08:54;100525.69;;;22.65;76.13
14882;BME280;7533;51.278;12.588;2022-10-28T17:14:05;100529.25;;;22.66;76.42
14882;BME280;7533;51.278;12.588;2022-10-28T17:19:08;100529.25;;;22.66;76.31
14882;BME280;7533;51.278;12.588;2022-10-28T17:24:11;100526.78;;;22.63;76.51
14882;BME280;7533;51.278;12.588;2022-10-28T17:29:15;100528.50;;;22.64;76.98
14882;BME280;7533;51.278;12.588;2022-10-28T17:34:17;100528.50;;;22.64;77.05
14882;BME280;7533;51.278;12.588;2022-10-28T17:39:20;100522.25;;;22.63;77.16
14882;BME280;7533;51.278;12.588;2022-10-28T17:44:28;100530.88;;;22.68;77.19
14882;BME280;7533;51.278;12.588;2022-10-28T17:49:31;100532.16;;;22.76;76.76
14882;BME280;7533;51.278;12.588;2022-10-28T17:54:34;100531.63;;;22.83;76.47
14882;BME280;7533;51.278;12.588;2022-10-28T17:59:38;100541.81;;;22.92;76.10
14882;BME280;7533;51.278;12.588;2022-10-28T18:04:41;100541.03;;;23.03;75.85
14882;BME280;7533;51.278;12.588;2022-10-28T18:09:44;100543.94;;;23.13;75.50
14882;BME280;7533;51.278;12.588;2022-10-28T18:14:48;100541.41;;;23.22;74.98
14882;BME280;7533;51.278;12.588;2022-10-28T18:19:51;100545.41;;;23.30;74.99
14882;BME280;7533;51.278;12.588;2022-10-28T18:24:53;100553.81;;;23.38;75.02
14882;BME280;7533;51.278;12.588;2022-10-28T18:29:58;100551.50;;;23.44;74.94
14882;BME280;7533;51.278;12.588;2022-10-28T18:35:01;100555.59;;;23.50;74.91
14882;BME280;7533;51.278;12.588;2022-10-28T18:40:04;100557.97;;;23.55;74.50
14882;BME280;7533;51.278;12.588;2022-10-28T18:45:09;100560.34;;;23.59;74.37
14882;BME280;7533;51.278;12.588;2022-10-28T18:50:12;100555.63;;;23.63;74.22
14882;BME280;7533;51.278;12.588;2022-10-28T18:55:15;100554.50;;;23.65;74.10
14882;BME280;7533;51.278;12.588;2022-10-28T19:00:19;100558.81;;;23.68;74.32
14882;BME280;7533;51.278;12.588;2022-10-28T19:05:22;100557.28;;;23.77;73.67
14882;BME280;7533;51.278;12.588;2022-10-28T19:10:25;100563.09;;;23.83;73.76
14882;BME280;7533;51.278;12.588;2022-10-28T19:15:29;100566.63;;;23.84;73.53
14882;BME280;7533;51.278;12.588;2022-10-28T19:20:32;100567.16;;;23.89;73.32
14882;BME280;7533;51.278;12.588;2022-10-28T19:25:35;100567.56;;;23.95;73.07
14882;BME280;7533;51.278;12.588;2022-10-28T19:30:39;100572.22;;;23.93;73.10
14882;BME280;7533;51.278;12.588;2022-10-28T19:35:42;100571.63;;;24.01;72.98
14882;BME280;7533;51.278;12.588;2022-10-28T19:40:45;100577.91;;;24.01;73.04
14882;BME280;7533;51.278;12.588;2022-10-28T19:45:49;100569.56;;;24.05;72.37
14882;BME280;7533;51.278;12.588;2022-10-28T19:50:52;100583.63;;;24.10;72.49
14882;BME280;7533;51.278;12.588;2022-10-28T19:55:56;100582.41;;;24.14;72.33
14882;BME280;7533;51.278;12.588;2022-10-28T20:01:02;100589.41;;;24.16;72.13
14882;BME280;7533;51.278;12.588;2022-10-28T20:06:06;100588.09;;;24.22;72.01
14882;BME280;7533;51.278;12.588;2022-10-28T20:11:11;100600.63;;;24.23;71.79
14882;BME280;7533;51.278;12.588;2022-10-28T20:16:16;100599.75;;;24.22;71.90
14882;BME280;7533;51.278;12.588;2022-10-28T20:21:20;100614.16;;;24.23;71.89
14882;BME280;7533;51.278;12.588;2022-10-28T20:26:26;100617.16;;;24.31;71.68
14882;BME280;7533;51.278;12.588;2022-10-28T20:31:31;100619.72;;;24.33;71.54
14882;BME280;7533;51.278;12.588;2022-10-28T20:36:35;100628.41;;;24.38;71.41
14882;BME280;7533;51.278;12.588;2022-10-28T20:41:39;100624.97;;;24.36;71.51
14882;BME280;7533;51.278;12.588;2022-10-28T20:46:43;100638.34;;;24.37;71.44
14882;BME280;7533;51.278;12.588;2022-10-28T20:51:48;100634.66;;;24.38;71.70
14882;BME280;7533;51.278;12.588;2022-10-28T20:56:51;100616.72;;;24.37;71.57
14882;BME280;7533;51.278;12.588;2022-10-28T21:01:55;100619.28;;;24.39;71.56
14882;BME280;7533;51.278;12.588;2022-10-28T21:06:58;100619.06;;;24.42;71.17
14882;BME280;7533;51.278;12.588;2022-10-28T21:12:00;100614.13;;;24.36;71.67
14882;BME280;7533;51.278;12.588;2022-10-28T21:17:04;100617.88;;;24.33;71.80
14882;BME280;7533;51.278;12.588;2022-10-28T21:22:07;100628.16;;;24.41;71.21
14882;BME280;7533;51.278;12.588;2022-10-28T21:27:10;100632.00;;;24.49;71.45
14882;BME280;7533;51.278;12.588;2022-10-28T21:32:14;100634.84;;;24.48;71.15
14882;BME280;7533;51.278;12.588;2022-10-28T21:37:17;100646.91;;;24.55;71.10
14882;BME280;7533;51.278;12.588;2022-10-28T21:42:20;100642.47;;;24.54;70.95
14882;BME280;7533;51.278;12.588;2022-10-28T21:47:23;100636.22;;;24.53;71.14
14882;BME280;7533;51.278;12.588;2022-10-28T21:52:27;100643.00;;;24.59;71.20
14882;BME280;7533;51.278;12.588;2022-10-28T21:57:30;100648.97;;;24.51;71.54
14882;BME280;7533;51.278;12.588;2022-10-28T22:02:34;100647.53;;;24.59;71.12
14882;BME280;7533;51.278;12.588;2022-10-28T22:07:37;100648.53;;;24.69;71.23
14882;BME280;7533;51.278;12.588;2022-10-28T22:12:39;100658.63;;;24.67;71.00
14882;BME280;7533;51.278;12.588;2022-10-28T22:17:43;100653.94;;;24.69;71.12
14882;BME280;7533;51.278;12.588;2022-10-28T22:22:46;100666.16;;;24.74;71.02
14882;BME280;7533;51.278;12.588;2022-10-28T22:27:49;100671.13;;;24.80;70.79
14882;BME280;7533;51.278;12.588;2022-10-28T22:32:53;100668.41;;;24.80;70.84
14882;BME280;7533;51.278;12.588;2022-10-28T22:37:56;100682.44;;;24.86;71.04
14882;BME280;7533;51.278;12.588;2022-10-28T22:42:59;100679.63;;;24.87;70.76
14882;BME280;7533;51.278;12.588;2022-10-28T22:48:03;100684.19;;;24.87;70.95
14882;BME280;7533;51.278;12.588;2022-10-28T22:53:06;100676.66;;;24.90;70.51
14882;BME280;7533;51.278;12.588;2022-10-28T22:58:09;100683.16;;;24.76;71.34
14882;BME280;7533;51.278;12.588;2022-10-28T23:03:13;100686.88;;;24.87;70.76
14882;BME280;7533;51.278;12.588;2022-10-28T23:08:16;100684.69;;;24.92;70.58
14882;BME280;7533;51.278;12.588;2022-10-28T23:13:19;100699.69;;;24.96;70.57
14882;BME280;7533;51.278;12.588;2022-10-28T23:18:25;100712.22;;;24.86;70.77
14882;BME280;7533;51.278;12.588;2022-10-28T23:23:28;100704.34;;;24.83;71.08
14882;BME280;7533;51.278;12.588;2022-10-28T23:28:31;100714.81;;;24.87;70.99
14882;BME280;7533;51.278;12.588;2022-10-28T23:33:35;100699.69;;;24.96;70.73
14882;BME280;7533;51.278;12.588;2022-10-28T23:38:38;100699.47;;;24.99;70.48
14882;BME280;7533;51.278;12.588;2022-10-28T23:43:41;100696.75;;;24.99;70.54
14882;BME280;7533;51.278;12.588;2022-10-28T23:48:45;100689.50;;;24.99;70.91
14882;BME280;7533;51.278;12.588;2022-10-28T23:53:48;100678.66;;;24.99;70.69
14882;BME280;7533;51.278;12.588;2022-10-28T23:58:51;100691.47;;;24.97;70.53
